Latest Weather Observations for Sunshine Coast Airport

IDQ60801

Issued at 12:42 pm EST Thursday 1 October 2020 (issued every 10 minutes, with the page automatically refreshed every 10 minutes)

About weather observations | Map of weather stations | Latest weather observations for QLD | Other Formats
Station Details ID: 040861 Name: SUNSHINE COAST AIRPORT Lat: -26.60 Lon: 153.09 Height: 3.42 m
Data from the previous 72 hours. | See also: Recent months at Sunshine Coast Airport
Date/Time
EST
Temp
°C
App
Temp
°C
Dew
Point
°C
Rel
Hum
%
Delta-T
°C
Wind Press
QNH
hPa
Press
MSL
hPa
Rain since
9am
mm
Dir  Spd
km/h
Gust
km/h
Spd
kts
Gust
kts
01/12:30pm 24.8 20.9 15.4 56 5.7 NE 30 35 16 19 1018.1 1018.0 0.0
01/12:00pm 24.5 20.8 15.1 55 5.6 NE 28 35 15 19 1018.6 1018.5 0.0
01/11:30am 24.6 21.7 16.1 59 5.2 NE 26 33 14 18 1019.1 1019.0 0.0
01/11:00am 23.8 21.0 15.3 59 5.1 NE 24 30 13 16 1019.5 1019.4 0.0
01/10:30am 24.3 21.6 13.5 51 6.3 NNE 20 30 11 16 1019.6 1019.5 0.0
01/10:00am 24.6 22.6 13.8 51 6.3 NNW 17 26 9 14 1020.0 1019.9 0.0
01/09:30am 24.0 21.3 12.9 50 6.4 NNW 19 30 10 16 1020.2 1020.1 0.0
01/09:00am 23.4 21.4 13.8 54 5.6 NW 17 28 9 15 1020.6 1020.5 0.0
01/08:30am 22.6 20.2 13.9 58 5.1 NW 19 26 10 14 1020.4 1020.3 0.0
01/08:00am 21.0 18.8 13.4 62 4.3 NW 17 20 9 11 1020.4 1020.3 0.0
01/07:30am 19.1 18.3 13.9 72 3.0 WNW 11 15 6 8 1020.1 1020.0 0.0
01/07:00am 16.3 15.6 13.2 82 1.7 WNW 9 13 5 7 1019.8 1019.7 0.0
01/06:30am 13.9 12.6 12.6 92 0.7 WNW 11 13 6 7 1019.6 1019.5 0.0
01/06:00am 12.6 10.7 11.7 94 0.5 WNW 13 15 7 8 1019.3 1019.2 0.0
01/05:30am 12.1 10.0 11.3 95 0.4 NW 13 13 7 7 1019.0 1018.9 0.0
01/05:00am 11.3 9.4 10.5 95 0.4 WNW 11 13 6 7 1018.9 1018.8 0.0
01/04:30am 11.1 9.5 10.2 94 0.5 WNW 9 11 5 6 1018.4 1018.3 0.0
01/04:00am 11.2 9.2 10.3 94 0.5 WNW 11 11 6 6 1018.1 1018.0 0.0
01/03:30am 11.3 9.8 10.4 94 0.5 WNW 9 11 5 6 1017.9 1017.8 0.0
01/03:00am 11.6 10.1 10.5 93 0.6 WNW 9 11 5 6 1017.9 1017.8 0.0
01/02:30am 12.1 10.0 11.2 94 0.5 WNW 13 15 7 8 1018.3 1018.2 0.0
01/02:00am 12.0 10.6 10.9 93 0.6 WNW 9 11 5 6 1018.2 1018.1 0.0
01/01:30am 11.9 10.5 10.8 93 0.6 WNW 9 11 5 6 1018.6 1018.5 0.0
01/01:00am 12.2 10.9 11.1 93 0.6 WNW 9 11 5 6 1019.0 1018.9 0.0
01/12:30am 12.4 11.1 11.1 92 0.7 W 9 9 5 5 1019.2 1019.1 0.0
01/12:00am 12.7 11.8 11.4 92 0.7 W 7 9 4 5 1019.5 1019.4 0.0
 
Date/Time
EST
Temp
°C
App
Temp
°C
Dew
Point
°C
Rel
Hum
%
Delta-T
°C
Wind Press
QNH
hPa
Press
MSL
hPa
Rain since
9am
mm
Dir  Spd
km/h
Gust
km/h
Spd
kts
Gust
kts
30/11:30pm 12.6 11.9 11.5 93 0.6 WNW 6 7 3 4 1019.7 1019.6 0.0
30/11:00pm 12.7 11.8 11.4 92 0.7 WSW 7 9 4 5 1020.2 1020.1 0.0
30/10:30pm 13.2 12.5 11.9 92 0.7 WSW 7 9 4 5 1020.4 1020.3 0.0
30/10:00pm 13.5 13.0 12.2 92 0.7 WSW 6 7 3 4 1020.2 1020.1 0.0
30/09:30pm 13.7 13.0 11.9 89 1.0 W 7 11 4 6 1020.4 1020.3 0.0
30/09:00pm 15.1 14.6 12.1 82 1.6 WSW 6 9 3 5 1020.3 1020.2 0.0
30/08:30pm 14.8 13.8 12.3 85 1.4 WNW 9 11 5 6 1020.3 1020.2 0.0
30/08:00pm 16.8 15.4 10.9 68 3.2 N 9 15 5 8 1020.1 1020.0 0.0
30/07:30pm 19.3 16.6 11.8 62 4.1 NNE 17 20 9 11 1019.8 1019.7 0.0
30/07:00pm 19.0 16.6 12.5 66 3.6 NNE 17 20 9 11 1019.4 1019.3 0.0
30/06:30pm 19.2 16.7 12.2 64 3.9 NE 17 24 9 13 1019.1 1019.0 0.0
30/06:00pm 19.9 17.4 12.4 62 4.2 NE 17 22 9 12 1018.8 1018.7 0.0
30/05:30pm 20.2 17.3 12.2 60 4.5 NE 19 24 10 13 1018.7 1018.6 0.0
30/05:00pm 20.5 17.5 12.7 61 4.4 NE 20 24 11 13 1018.3 1018.2 0.0
30/04:30pm 20.8 18.0 12.5 59 4.7 NE 19 22 10 12 1018.3 1018.2 0.0
30/04:00pm 21.2 18.1 12.3 57 5.0 NNE 20 24 11 13 1018.4 1018.3 0.0
30/03:30pm 21.3 18.5 12.7 58 4.9 NNE 19 22 10 12 1018.5 1018.4 0.0
30/03:00pm 21.8 18.9 12.9 57 5.1 NNE 20 24 11 13 1018.7 1018.6 0.0
30/02:30pm 22.4 19.4 12.4 53 5.7 NE 20 28 11 15 1018.8 1018.7 0.0
30/02:00pm 22.4 19.8 13.7 58 5.0 NE 20 24 11 13 1018.9 1018.8 0.0
30/01:30pm 21.8 18.8 13.7 60 4.7 NE 22 26 12 14 1019.4 1019.3 0.0
30/01:00pm 22.2 19.1 11.6 51 5.9 NE 19 22 10 12 1019.9 1019.8 0.0
30/12:30pm 22.1 19.4 11.8 52 5.8 NE 17 20 9 11 1020.2 1020.1 0.0
30/12:00pm 23.4 21.2 13.3 53 5.8 NE 17 24 9 13 1020.4 1020.3 0.0
30/11:30am 20.7 19.7 15.5 72 3.1 NW 15 20 8 11 1021.1 1021.0 0.0
30/11:00am 20.9 19.6 15.7 72 3.1 N 17 24 9 13 1021.5 1021.4 0.0
30/10:30am 20.1 17.1 13.8 67 3.6 NE 22 30 12 16 1021.6 1021.5 0.0
30/10:00am 22.2 20.5 12.5 54 5.5 ENE 13 19 7 10 1021.6 1021.5 0.0
30/09:30am 20.4 20.0 13.1 63 4.2 SE 7 11 4 6 1021.8 1021.7 0.0
30/09:00am 21.0 20.1 12.7 59 4.7 ESE 9 13 5 7 1022.1 1022.0 0.2
30/08:30am 19.0 18.3 12.0 64 3.9 S 7 11 4 6 1022.2 1022.1 0.2
30/08:00am 18.7 17.2 12.0 65 3.7 SW 11 13 6 7 1022.2 1022.1 0.2
30/07:30am 14.7 13.6 11.8 83 1.6 WSW 9 9 5 5 1022.1 1022.0 0.2
30/07:00am 12.7 11.8 10.8 88 1.0 SW 6 7 3 4 1022.2 1022.1 0.2
30/06:30am 12.1 12.3 10.7 91 0.7 CALM 0 6 0 3 1021.7 1021.6 0.2
30/06:00am 10.4 9.1 9.2 92 0.6 W 6 9 3 5 1021.4 1021.3 0.2
30/05:30am 10.6 9.8 9.7 94 0.5 WSW 4 7 2 4 1021.0 1020.9 0.2
30/05:00am 10.0 8.7 9.1 94 0.4 SW 6 9 3 5 1020.8 1020.7 0.2
30/04:30am 9.3 7.7 8.1 92 0.6 W 6 7 3 4 1020.6 1020.5 0.2
30/04:00am 9.8 8.3 8.6 92 0.6 WSW 6 9 3 5 1020.5 1020.4 0.2
30/03:30am 10.2 7.1 9.0 92 0.6 W 15 19 8 10 1020.4 1020.3 0.2
30/03:00am 9.6 7.6 8.7 94 0.4 W 9 11 5 6 1020.4 1020.3 0.2
30/02:30am 9.9 8.9 8.8 93 0.5 WSW 4 7 2 4 1020.9 1020.8 0.2
30/02:00am 9.0 7.1 7.6 91 0.7 W 7 9 4 5 1021.2 1021.1 0.2
30/01:30am 10.5 9.0 8.4 87 1.0 WSW 6 7 3 4 1021.6 1021.5 0.2
30/01:00am 11.3 9.7 8.7 84 1.3 W 7 7 4 4 1022.2 1022.1 0.2
30/12:30am 12.1 10.3 9.3 83 1.4 SW 9 11 5 6 1022.6 1022.5 0.2
30/12:00am 13.1 11.3 9.5 79 1.8 SW 9 15 5 8 1023.1 1023.0 0.2
 
Date/Time
EST
Temp
°C
App
Temp
°C
Dew
Point
°C
Rel
Hum
%
Delta-T
°C
Wind Press
QNH
hPa
Press
MSL
hPa
Rain since
9am
mm
Dir  Spd
km/h
Gust
km/h
Spd
kts
Gust
kts
29/11:30pm 13.6 11.3 8.9 73 2.4 SW 11 13 6 7 1023.0 1022.9 0.2
29/11:25pm 14.1 12.2 8.9 71 2.6 SW 9 11 5 6 1023.0 1022.9 0.2
29/11:00pm 19.1 15.9 8.4 50 5.5 ESE 15 24 8 13 1023.0 1022.9 0.2
29/10:30pm 19.1 16.0 8.7 51 5.4 ESE 15 20 8 11 1023.3 1023.2 0.2
29/10:00pm 19.1 15.7 9.0 52 5.3 ESE 17 24 9 13 1023.3 1023.2 0.2
29/09:30pm 19.1 15.6 8.7 51 5.4 E 17 24 9 13 1023.5 1023.4 0.2
29/09:00pm 19.4 16.1 9.6 53 5.2 ESE 17 24 9 13 1023.6 1023.5 0.2
29/08:30pm 19.5 15.6 8.5 49 5.7 ESE 19 30 10 16 1023.5 1023.4 0.2
29/08:00pm 19.4 15.1 7.8 47 5.9 ESE 20 28 11 15 1023.3 1023.2 0.2
29/07:30pm 19.6 15.2 7.4 45 6.2 ESE 20 32 11 17 1023.0 1022.9 0.2
29/07:00pm 19.4 15.3 7.8 47 5.9 ESE 19 26 10 14 1022.9 1022.8 0.2
29/06:30pm 19.4 15.0 7.2 45 6.2 SE 20 28 11 15 1022.5 1022.4 0.2
29/06:00pm 19.5 14.6 8.5 49 5.7 SE 24 32 13 17 1022.2 1022.1 0.2
29/05:30pm 19.6 15.3 9.2 51 5.5 SE 22 32 12 17 1022.0 1021.9 0.2
29/05:00pm 20.0 15.2 9.0 49 5.8 SE 24 32 13 17 1021.8 1021.7 0.2
29/04:30pm 20.4 16.1 9.3 49 5.9 SE 22 32 12 17 1021.7 1021.6 0.2
29/04:00pm 20.8 16.8 9.1 47 6.2 SE 20 32 11 17 1021.6 1021.5 0.2
29/03:30pm 20.8 16.3 10.0 50 5.8 ESE 24 32 13 17 1021.4 1021.3 0.2
29/03:00pm 21.1 17.5 10.6 51 5.7 ESE 20 28 11 15 1021.6 1021.5 0.2
29/02:30pm 21.4 17.4 10.6 50 5.9 ESE 22 30 12 16 1022.0 1021.9 0.2
29/02:00pm 21.3 16.8 8.6 44 6.7 SE 22 30 12 16 1022.4 1022.3 0.2
29/01:30pm 21.3 16.8 10.2 49 6.0 SE 24 32 13 17 1022.8 1022.7 0.2
29/01:00pm 21.4 17.1 10.6 50 5.9 SE 24 33 13 18 1023.0 1022.9 0.2
29/12:30pm 21.4 17.3 11.4 53 5.5 SE 24 33 13 18 1023.3 1023.2 0.2
29/12:00pm 21.3 17.5 11.1 52 5.6 SE 22 33 12 18 1023.6 1023.5 0.2
29/11:30am 21.2 17.0 11.2 53 5.5 SE 24 33 13 18 1024.1 1024.0 0.2
29/11:00am 20.6 15.7 11.2 55 5.1 SSE 28 37 15 20 1024.7 1024.6 0.2
29/10:30am 21.0 17.7 12.9 60 4.6 SE 22 30 12 16 1025.1 1025.0 0.2
29/10:00am 19.5 17.9 15.0 75 2.6 SSE 17 26 9 14 1025.3 1025.2 0.2
29/09:30am 17.7 15.6 14.8 83 1.7 SSW 19 26 10 14 1025.4 1025.3 0.2
29/09:00am 19.8 18.0 14.4 71 3.1 SSE 17 22 9 12 1025.3 1025.2 3.6
29/08:30am 18.2 17.5 14.3 78 2.2 SSW 11 17 6 9 1025.0 1024.9 3.6
29/08:00am 16.6 15.8 14.1 85 1.4 WSW 11 17 6 9 1024.9 1024.8 3.6
29/07:30am 16.1 13.7 13.8 86 1.3 SW 19 24 10 13 1024.3 1024.2 3.6
29/07:09am 16.1 14.8 13.6 85 1.4 SW 13 17 7 9 1024.0 1023.9 3.6
29/07:00am 16.2 15.6 13.5 84 1.5 S 9 15 5 8 1023.8 1023.7 3.6
29/06:48am 16.2 13.8 13.7 85 1.4 SSW 19 33 10 18 1023.7 1023.6 2.0
29/06:30am 15.0 12.9 12.5 85 1.4 SW 15 20 8 11 1023.4 1023.3 0.0
29/06:00am 14.9 13.2 12.6 86 1.3 SW 13 19 7 10 1023.0 1022.9 0.0
29/05:30am 15.0 13.6 12.3 84 1.5 SSW 11 17 6 9 1022.8 1022.7 0.0
29/05:00am 16.6 16.1 12.8 78 2.1 ESE 7 15 4 8 1022.1 1022.0 0.0
29/04:30am 16.5 15.4 13.2 81 1.8 S 11 17 6 9 1022.2 1022.1 0.0
29/04:00am 16.6 14.2 11.5 72 2.7 SSW 15 26 8 14 1022.1 1022.0 0.0
29/03:30am 19.2 15.9 11.7 62 4.1 SE 20 30 11 16 1021.9 1021.8 0.0
29/03:00am 19.3 15.5 11.3 60 4.4 SE 22 30 12 16 1022.0 1021.9 0.0
29/02:30am 19.2 15.4 11.3 60 4.3 ESE 22 32 12 17 1022.1 1022.0 0.0
29/02:00am 19.2 15.7 12.2 64 3.9 ESE 22 30 12 16 1022.3 1022.2 0.0
29/01:30am 19.3 16.2 12.3 64 3.9 ESE 20 30 11 16 1022.6 1022.5 0.0
29/01:00am 19.2 15.8 11.3 60 4.3 ESE 20 26 11 14 1022.9 1022.8 0.0
29/12:30am 19.3 16.1 11.8 62 4.1 ESE 20 28 11 15 1023.4 1023.3 0.0
29/12:00am 19.3 15.8 12.1 63 4.0 ESE 22 30 12 16 1023.5 1023.4 0.0
 
Date/Time
EST
Temp
°C
App
Temp
°C
Dew
Point
°C
Rel
Hum
%
Delta-T
°C
Wind Press
QNH
hPa
Press
MSL
hPa
Rain since
9am
mm
Dir  Spd
km/h
Gust
km/h
Spd
kts
Gust
kts
28/11:30pm 19.2 16.2 12.5 65 3.7 ESE 20 32 11 17 1023.6 1023.5 0.0
28/11:00pm 19.0 15.8 11.8 63 4.0 SE 20 30 11 16 1023.7 1023.6 0.0
28/10:30pm 19.2 14.9 12.2 64 3.9 ESE 26 33 14 18 1023.8 1023.7 0.0
28/10:00pm 19.4 15.8 13.1 67 3.6 ESE 24 35 13 19 1024.0 1023.9 0.0
28/09:30pm 19.2 15.6 12.0 63 4.0 SE 22 32 12 17 1024.1 1024.0 0.0
28/09:00pm 19.1 15.6 12.1 64 3.9 SE 22 32 12 17 1024.1 1024.0 0.0
28/08:30pm 19.1 15.3 12.4 65 3.7 SE 24 33 13 18 1024.2 1024.1 0.0
28/08:00pm 19.2 15.7 12.2 64 3.9 SE 22 28 12 15 1024.1 1024.0 0.0
28/07:30pm 19.1 15.3 12.4 65 3.7 SE 24 33 13 18 1023.8 1023.7 0.0
28/07:00pm 19.4 16.0 12.4 64 3.9 ESE 22 32 12 17 1023.6 1023.5 0.0
28/06:30pm 19.4 16.0 12.4 64 3.9 SE 22 32 12 17 1023.3 1023.2 0.0
28/06:00pm 19.4 16.0 12.4 64 3.9 SE 22 35 12 19 1022.9 1022.8 0.0
28/05:30pm 19.5 15.9 12.0 62 4.2 SE 22 30 12 16 1022.6 1022.5 0.0
28/05:00pm 19.8 16.4 12.6 63 4.0 SE 22 28 12 15 1022.3 1022.2 0.0
28/04:30pm 19.8 15.9 13.3 66 3.7 SE 26 32 14 17 1021.9 1021.8 0.0
28/04:00pm 19.6 15.8 13.5 68 3.5 SE 26 37 14 20 1021.6 1021.5 0.0
28/03:30pm 20.7 17.2 14.4 67 3.7 SE 26 37 14 20 1021.5 1021.4 0.0
28/03:00pm 20.4 16.2 13.6 65 3.9 SE 28 37 15 20 1021.6 1021.5 0.0
28/02:30pm 20.9 16.7 13.6 63 4.2 SE 28 37 15 20 1021.8 1021.7 0.0
28/02:00pm 21.4 17.3 13.8 62 4.4 SE 28 33 15 18 1022.1 1022.0 0.0
28/01:30pm 21.2 16.9 13.1 60 4.6 SE 28 35 15 19 1022.4 1022.3 0.0
28/01:00pm 21.5 17.4 13.9 62 4.4 SE 28 35 15 19 1022.7 1022.6 0.0

Other formats

Comma delimited format used in spreadsheet applications
http://www.bom.gov.au/fwo/IDQ60801/IDQ60801.94569.axf

JavaScript Object Notation format (JSON) in row-major order
http://www.bom.gov.au/fwo/IDQ60801/IDQ60801.94569.json

Data quality

Most of these data are generated automatically and are frequently updated. Quality checks on data are not normally performed. It is possible for incorrect values to appear. Refer to information at About Latest Weather Observations and please check the disclaimer before using these data.